Time;durP1;ratioP1;P1;durP2;ratioP2;P2;SDS_P1;SDS_P2;PMS_P1;PMS_P2;Temp;Humidity;BMP_temperature;BMP_pressure;BME280_temperature;BME280_humidity;BME280_pressure;Samples;Min_cycle;Max_cycle;Signal;HPM_P1;HPM_P2
2020/12/19 00:00:59;;;;;;;429.45;74.43;;;-0.60;99.90;;;;;;4445404;28;660423;-63
2020/12/19 00:03:46;;;;;;;410.73;66.63;;;-0.60;99.90;;;;;;4464418;28;661547;-62
2020/12/19 00:06:33;;;;;;;295.13;62.67;;;-0.60;99.90;;;;;;4464707;28;660678;-62
2020/12/19 00:09:20;;;;;;;406.20;67.03;;;-0.50;99.90;;;;;;4445266;28;661271;-62
2020/12/19 00:12:08;;;;;;;293.67;59.47;;;-0.60;99.90;;;;;;4464245;28;660795;-63
2020/12/19 00:14:55;;;;;;;259.60;56.93;;;-0.60;99.90;;;;;;4444861;28;660530;-63
2020/12/19 00:17:43;;;;;;;271.67;49.97;;;-0.50;99.90;;;;;;4464233;28;660266;-62
2020/12/19 00:20:30;;;;;;;217.47;50.70;;;-0.50;99.90;;;;;;4445271;28;660657;-62
2020/12/19 00:23:17;;;;;;;251.70;51.63;;;-0.50;99.90;;;;;;4464060;28;661591;-63
2020/12/19 00:26:04;;;;;;;256.60;50.88;;;-0.40;99.90;;;;;;4450547;28;661302;-64
2020/12/19 00:28:51;;;;;;;266.37;55.10;;;-0.50;99.90;;;;;;4468373;28;661017;-63
2020/12/19 00:31:39;;;;;;;256.37;54.83;;;-0.60;99.90;;;;;;4464412;28;660698;-62
2020/12/19 00:34:26;;;;;;;216.43;51.63;;;-0.60;99.90;;;;;;4440842;28;661565;-63
2020/12/19 00:37:14;;;;;;;124.40;33.00;;;-0.40;99.90;;;;;;4462594;28;660641;-64
2020/12/19 00:40:01;;;;;;;259.70;47.70;;;-0.10;99.90;;;;;;4464084;28;660726;-62
2020/12/19 00:42:48;;;;;;;190.13;47.08;;;-0.30;99.90;;;;;;4467646;28;661067;-62
2020/12/19 00:45:35;;;;;;;241.13;48.10;;;-0.50;99.90;;;;;;4448261;28;660727;-63
2020/12/19 00:48:23;;;;;;;245.73;47.43;;;-0.60;99.90;;;;;;4469009;28;661046;-62
2020/12/19 00:51:13;;;;;;;248.87;49.63;;;-0.70;99.90;;;;;;4448110;28;660553;-63
2020/12/19 00:54:00;;;;;;;361.20;53.43;;;-0.70;99.90;;;;;;4448092;28;660817;-62
2020/12/19 00:56:47;;;;;;;326.63;53.47;;;-0.70;99.90;;;;;;4470784;28;662390;-63
2020/12/19 00:59:35;;;;;;;280.47;48.73;;;-0.70;99.90;;;;;;4450094;28;661505;-63
2020/12/19 01:02:22;;;;;;;221.33;43.90;;;-0.70;99.90;;;;;;4467325;28;661368;-63
2020/12/19 01:05:10;;;;;;;251.47;37.77;;;-0.80;99.90;;;;;;4447806;28;660656;-64
2020/12/19 01:07:58;;;;;;;185.07;33.43;;;-0.60;99.90;;;;;;4467052;28;661387;-62
2020/12/19 01:10:45;;;;;;;189.93;33.90;;;-0.70;99.90;;;;;;4448065;28;660662;-63
2020/12/19 01:13:32;;;;;;;150.10;30.40;;;-0.70;99.90;;;;;;4466827;28;661510;-63
2020/12/19 01:16:20;;;;;;;120.07;21.83;;;-0.80;99.90;;;;;;4450537;28;660619;-63
2020/12/19 01:19:07;;;;;;;164.93;30.83;;;-0.70;99.90;;;;;;4471263;28;661511;-63
2020/12/19 01:21:55;;;;;;;143.13;28.03;;;-0.60;99.90;;;;;;4448986;28;660695;-63
2020/12/19 01:24:42;;;;;;;152.10;28.27;;;-0.60;99.90;;;;;;4470995;28;661819;-63
2020/12/19 01:27:29;;;;;;;127.40;27.70;;;-0.70;99.90;;;;;;4447510;28;660607;-64
2020/12/19 01:30:16;;;;;;;245.30;29.60;;;-0.70;99.90;;;;;;4471007;28;661962;-62
2020/12/19 01:33:03;;;;;;;195.60;26.63;;;-0.80;99.90;;;;;;4466716;28;660656;-62
2020/12/19 01:35:50;;;;;;;125.30;25.57;;;-0.70;99.90;;;;;;4444537;28;660598;-62
2020/12/19 01:38:38;;;;;;;143.37;25.37;;;-0.80;99.90;;;;;;4466629;28;661309;-62
2020/12/19 01:41:25;;;;;;;118.83;22.67;;;-0.80;99.90;;;;;;4447457;28;660789;-62
2020/12/19 01:44:12;;;;;;;125.27;23.43;;;-0.70;99.90;;;;;;4466390;28;662184;-63
2020/12/19 01:47:00;;;;;;;174.83;23.40;;;-0.80;99.90;;;;;;4447077;28;660971;-63
2020/12/19 01:49:47;;;;;;;131.70;21.73;;;-0.80;99.90;;;;;;4470188;28;661134;-62
2020/12/19 01:52:35;;;;;;;168.65;24.20;;;-0.70;99.90;;;;;;4450869;28;660864;-64
2020/12/19 01:55:22;;;;;;;118.93;21.33;;;-0.50;99.90;;;;;;4452369;28;662078;-62
2020/12/19 01:58:09;;;;;;;161.23;23.10;;;-0.50;99.90;;;;;;4429435;28;660782;-62
2020/12/19 02:00:57;;;;;;;128.93;21.47;;;-0.60;99.90;;;;;;4448315;28;661511;-63
2020/12/19 02:03:44;;;;;;;106.63;23.40;;;-0.70;99.90;;;;;;4429223;28;660740;-63
2020/12/19 02:06:34;;;;;;;123.53;23.73;;;-0.70;99.90;;;;;;4452532;28;663012;-63
2020/12/19 02:09:22;;;;;;;107.17;22.33;;;-0.80;99.90;;;;;;4428167;28;661686;-62
2020/12/19 02:12:10;;;;;;;144.53;23.13;;;-0.80;99.90;;;;;;4429044;28;660350;-63
2020/12/19 02:14:58;;;;;;;211.50;24.10;;;-0.80;99.90;;;;;;4448133;28;661122;-63
2020/12/19 02:17:45;;;;;;;185.93;23.70;;;-0.80;99.90;;;;;;4428018;28;660618;-62
2020/12/19 02:20:32;;;;;;;195.30;25.30;;;-0.80;99.90;;;;;;4449000;28;662142;-63
2020/12/19 02:23:21;;;;;;;164.57;25.73;;;-0.80;99.90;;;;;;4436873;28;660639;-64
2020/12/19 02:26:09;;;;;;;122.93;24.33;;;-0.80;99.90;;;;;;4447436;28;661121;-64
2020/12/19 02:28:56;;;;;;;140.57;29.47;;;-0.80;99.90;;;;;;4451982;28;660473;-63
2020/12/19 02:31:43;;;;;;;150.53;27.33;;;-0.80;99.90;;;;;;4447782;28;660703;-62
2020/12/19 02:34:31;;;;;;;293.60;29.73;;;-0.70;99.90;;;;;;4428550;28;660876;-63
2020/12/19 02:37:18;;;;;;;268.17;27.00;;;-0.80;99.90;;;;;;4447568;28;660832;-62
2020/12/19 02:40:06;;;;;;;255.98;26.38;;;-0.80;99.90;;;;;;4428786;28;660773;-63
2020/12/19 02:42:53;;;;;;;266.77;28.13;;;-0.70;99.90;;;;;;4447800;28;660964;-63
2020/12/19 02:45:40;;;;;;;209.80;25.57;;;-0.70;99.90;;;;;;4428579;28;660801;-63
2020/12/19 02:48:27;;;;;;;300.23;29.10;;;-0.70;99.90;;;;;;4447829;28;661128;-62
2020/12/19 02:51:14;;;;;;;438.83;31.27;;;-0.80;99.90;;;;;;4428545;28;661058;-63
2020/12/19 02:54:01;;;;;;;251.60;28.87;;;-0.80;99.90;;;;;;4457649;28;661841;-63
2020/12/19 02:56:49;;;;;;;409.53;32.57;;;-0.90;99.90;;;;;;4465026;28;660862;-62
2020/12/19 02:59:36;;;;;;;380.80;29.77;;;-0.80;99.90;;;;;;4446022;28;661324;-62
2020/12/19 03:02:23;;;;;;;407.97;31.57;;;-0.80;99.90;;;;;;4465082;28;660706;-62
2020/12/19 03:05:10;;;;;;;284.03;28.40;;;-0.90;99.90;;;;;;4445283;28;660450;-63
2020/12/19 03:07:57;;;;;;;337.67;28.60;;;-1.00;99.90;;;;;;4464790;28;661666;-63
2020/12/19 03:10:44;;;;;;;375.10;30.03;;;-1.00;99.90;;;;;;4446054;28;660835;-64
2020/12/19 03:13:32;;;;;;;233.67;27.13;;;-1.00;99.90;;;;;;4465208;28;661785;-63
2020/12/19 03:16:22;;;;;;;308.43;28.50;;;-1.00;99.90;;;;;;4445786;28;660519;-64
2020/12/19 03:19:09;;;;;;;315.30;28.33;;;-1.00;99.90;;;;;;4445799;28;660729;-63
2020/12/19 03:21:56;;;;;;;310.55;28.20;;;-1.00;99.90;;;;;;4468931;28;661784;-63
2020/12/19 03:24:43;;;;;;;307.17;29.77;;;-1.00;99.90;;;;;;4465010;28;660664;-62
2020/12/19 03:27:30;;;;;;;297.93;27.30;;;-0.90;99.90;;;;;;4445966;28;660968;-62
2020/12/19 03:30:18;;;;;;;265.37;29.77;;;-0.90;99.90;;;;;;4464885;28;660880;-63
2020/12/19 03:33:05;;;;;;;234.17;28.33;;;-1.00;99.90;;;;;;4441832;28;660738;-63
2020/12/19 03:35:52;;;;;;;254.70;30.17;;;-1.00;99.90;;;;;;4464996;28;661803;-63
2020/12/19 03:38:39;;;;;;;325.47;29.13;;;-1.00;99.90;;;;;;4445432;28;660815;-63
2020/12/19 03:41:26;;;;;;;230.57;25.07;;;-1.00;99.90;;;;;;4464744;28;661813;-62
2020/12/19 03:44:13;;;;;;;246.57;26.53;;;-1.00;99.90;;;;;;4464388;28;661664;-62
2020/12/19 03:47:01;;;;;;;234.10;23.63;;;-1.00;99.90;;;;;;4445862;28;660697;-63
2020/12/19 03:49:48;;;;;;;319.37;26.33;;;-1.00;99.90;;;;;;4464841;28;660785;-63
2020/12/19 03:52:35;;;;;;;178.50;23.40;;;-1.00;99.90;;;;;;4441825;28;660800;-62
2020/12/19 03:55:22;;;;;;;160.87;22.30;;;-1.10;99.90;;;;;;4464822;28;661192;-62
2020/12/19 03:58:09;;;;;;;274.20;26.23;;;-1.10;99.90;;;;;;4445204;28;661420;-62
2020/12/19 04:00:56;;;;;;;237.73;22.60;;;-1.10;99.90;;;;;;4464733;28;661964;-63
2020/12/19 04:03:44;;;;;;;237.67;24.33;;;-1.00;99.90;;;;;;4464491;28;660937;-62
2020/12/19 04:06:31;;;;;;;266.53;24.27;;;-1.10;99.90;;;;;;4441180;28;662226;-63
2020/12/19 04:09:18;;;;;;;251.00;26.27;;;-1.10;99.90;;;;;;4464369;28;660513;-63
2020/12/19 04:12:05;;;;;;;232.20;22.87;;;-0.90;99.90;;;;;;4443888;28;660577;-62
2020/12/19 04:14:52;;;;;;;125.53;18.47;;;-0.90;99.90;;;;;;4464634;28;661210;-63
2020/12/19 04:17:39;;;;;;;234.80;23.47;;;-0.70;99.90;;;;;;4448758;28;660634;-64
2020/12/19 04:20:27;;;;;;;181.70;22.13;;;-0.80;99.90;;;;;;4468001;28;661948;-62
2020/12/19 04:23:14;;;;;;;162.07;22.30;;;-0.90;99.90;;;;;;4448500;28;661073;-64
2020/12/19 04:26:01;;;;;;;188.43;23.00;;;-0.90;99.90;;;;;;4467185;28;661590;-62
2020/12/19 04:28:49;;;;;;;214.20;24.07;;;-1.00;99.90;;;;;;4464741;28;660652;-63
2020/12/19 04:31:36;;;;;;;197.33;24.20;;;-1.00;99.90;;;;;;4471843;28;660812;-63
2020/12/19 04:34:23;;;;;;;132.20;21.95;;;-1.00;99.90;;;;;;4467499;28;661166;-62
2020/12/19 04:37:11;;;;;;;213.13;25.67;;;-1.00;99.90;;;;;;4448619;28;661767;-63
2020/12/19 04:39:58;;;;;;;139.07;22.93;;;-1.00;99.90;;;;;;4467473;28;660953;-63
2020/12/19 04:42:45;;;;;;;195.80;22.03;;;-1.00;99.90;;;;;;4448567;28;661225;-63
2020/12/19 04:45:32;;;;;;;195.47;23.20;;;-1.10;99.90;;;;;;4467814;28;660945;-63
2020/12/19 04:48:19;;;;;;;141.63;20.90;;;-1.00;99.90;;;;;;4448488;28;660933;-64
2020/12/19 04:51:06;;;;;;;146.27;21.63;;;-1.00;99.90;;;;;;4467437;28;662748;-63
2020/12/19 04:53:54;;;;;;;78.47;15.10;;;-1.10;99.90;;;;;;4467435;28;660883;-63
2020/12/19 04:56:41;;;;;;;110.47;19.63;;;-0.80;99.90;;;;;;4445559;28;660083;-63
2020/12/19 04:59:28;;;;;;;126.93;16.93;;;-0.90;99.90;;;;;;4467206;28;661673;-62
2020/12/19 05:02:15;;;;;;;104.90;19.07;;;-0.80;99.90;;;;;;4448235;28;660613;-62
2020/12/19 05:05:07;;;;;;;122.30;21.13;;;-0.90;99.90;;;;;;4466828;28;662033;-62
2020/12/19 05:07:54;;;;;;;79.70;18.80;;;-1.00;99.90;;;;;;4429207;28;660906;-64
2020/12/19 05:10:42;;;;;;;119.60;20.90;;;-1.00;99.90;;;;;;4472496;28;659904;-62
2020/12/19 05:13:29;;;;;;;134.38;21.65;;;-1.00;99.90;;;;;;4447726;28;661652;-63
2020/12/19 05:16:16;;;;;;;96.77;19.47;;;-1.10;99.90;;;;;;4471206;28;661705;-63
2020/12/19 05:19:07;;;;;;;100.17;20.33;;;-1.10;99.90;;;;;;4468242;28;660205;-63
2020/12/19 05:21:55;;;;;;;172.13;24.00;;;-1.10;99.90;;;;;;4447796;28;660804;-63
2020/12/19 05:24:42;;;;;;;107.40;22.27;;;-1.10;99.90;;;;;;4471219;28;662153;-62
2020/12/19 05:27:30;;;;;;;129.50;24.00;;;-1.10;99.90;;;;;;4453502;28;660785;-64
2020/12/19 05:30:18;;;;;;;140.77;21.90;;;-1.10;99.90;;;;;;4466866;28;662031;-62
2020/12/19 05:33:05;;;;;;;200.55;25.55;;;-1.10;99.90;;;;;;4444364;28;660555;-63
2020/12/19 05:35:52;;;;;;;244.03;27.40;;;-1.00;99.90;;;;;;4468102;28;661574;-63
2020/12/19 05:38:39;;;;;;;332.83;30.73;;;-0.90;99.90;;;;;;4447576;28;660794;-64
2020/12/19 05:41:26;;;;;;;405.20;30.67;;;-1.00;99.90;;;;;;4470682;28;662580;-63
2020/12/19 05:44:14;;;;;;;470.60;33.28;;;-0.90;99.90;;;;;;4466330;28;661386;-62
2020/12/19 05:47:04;;;;;;;435.27;33.43;;;-0.90;99.90;;;;;;4442272;28;660963;-62
2020/12/19 05:49:51;;;;;;;386.43;32.80;;;-1.00;99.90;;;;;;4443341;28;660963;-62
2020/12/19 05:52:38;;;;;;;359.93;30.33;;;-1.00;99.90;;;;;;4466217;28;660737;-63
2020/12/19 05:55:25;;;;;;;423.27;34.13;;;-1.00;99.90;;;;;;4429333;28;662018;-62
2020/12/19 05:58:12;;;;;;;303.10;29.27;;;-1.00;99.90;;;;;;4448516;28;660994;-62
2020/12/19 06:01:00;;;;;;;338.63;31.50;;;-1.00;99.90;;;;;;4429328;28;660751;-63
2020/12/19 06:03:49;;;;;;;350.77;31.83;;;-1.00;99.90;;;;;;4448461;28;661851;-62
2020/12/19 06:06:38;;;;;;;221.40;26.20;;;-1.00;99.90;;;;;;4425219;28;661713;-63
2020/12/19 06:09:25;;;;;;;272.57;27.90;;;-0.90;99.90;;;;;;4428941;28;660820;-63
2020/12/19 06:12:14;;;;;;;304.73;32.00;;;-0.90;99.90;;;;;;4448169;28;661521;-62
2020/12/19 06:15:01;;;;;;;425.53;33.33;;;-0.90;99.90;;;;;;4424862;28;661415;-62
2020/12/19 06:17:51;;;;;;;280.60;32.17;;;-1.00;99.90;;;;;;4448177;28;660818;-63
2020/12/19 06:20:39;;;;;;;267.07;29.87;;;-0.90;99.90;;;;;;4443813;28;660688;-64
2020/12/19 06:23:33;;;;;;;235.85;31.35;;;-1.00;99.90;;;;;;4451987;28;660772;-63
2020/12/19 06:26:21;;;;;;;234.32;28.67;;;-0.90;99.90;;;;;;4401612;28;661975;-63
2020/12/19 06:29:09;;;;;;;327.50;31.50;;;-0.90;99.90;;;;;;4447680;28;660494;-64
2020/12/19 06:31:59;;;;;;;367.13;31.33;;;-0.80;99.90;;;;;;4447894;28;661550;-64
2020/12/19 06:34:58;;;;;;;187.30;25.92;;;-0.90;99.90;;;;;;4428663;28;662270;-64
2020/12/19 06:37:45;;;;;;;182.20;25.40;;;-0.70;99.90;;;;;;4428781;28;660602;-64
2020/12/19 06:40:39;;;;;;;216.10;26.33;;;-0.80;99.90;;;;;;4447346;28;661811;-64
2020/12/19 06:43:26;;;;;;;236.50;28.20;;;-0.80;99.90;;;;;;4428526;28;660617;-63
2020/12/19 06:46:31;;;;;;;264.40;27.87;;;-0.90;99.90;;;;;;4447418;28;660885;-63
2020/12/19 06:49:35;;;;;;;203.13;25.67;;;-1.00;99.90;;;;;;4424302;28;660762;-64
2020/12/19 06:52:22;;;;;;;211.70;24.87;;;-1.10;99.90;;;;;;4424552;28;661103;-63
2020/12/19 06:55:18;;;;;;;195.20;24.63;;;-1.00;99.90;;;;;;4423809;28;661241;-63
2020/12/19 06:58:06;;;;;;;193.70;24.70;;;-1.00;99.90;;;;;;4399605;28;660822;-63
2020/12/19 07:00:52;;;;;;;259.07;24.30;;;-1.00;99.90;;;;;;4442071;28;660804;-63
2020/12/19 07:03:40;;;;;;;251.50;24.80;;;-1.00;99.90;;;;;;4423479;28;660690;-63
2020/12/19 07:06:27;;;;;;;270.77;28.47;;;-1.00;99.90;;;;;;4442186;28;661528;-63
2020/12/19 07:09:29;;;;;;;321.90;25.83;;;-1.00;99.90;;;;;;4423523;28;660579;-65
2020/12/19 07:12:32;;;;;;;240.83;24.93;;;-0.90;99.90;;;;;;4396588;28;661757;-63
2020/12/19 07:15:42;;;;;;;244.97;26.67;;;-0.90;99.90;;;;;;4413007;28;660863;-64
2020/12/19 07:18:31;;;;;;;185.97;23.67;;;-0.90;99.90;;;;;;4404304;28;660567;-64
2020/12/19 07:21:19;;;;;;;233.23;24.37;;;-0.90;99.90;;;;;;4437200;28;660512;-65
2020/12/19 07:24:06;;;;;;;196.23;23.37;;;-0.90;99.90;;;;;;4446350;28;661411;-63
2020/12/19 07:26:54;;;;;;;157.73;23.93;;;-0.90;99.90;;;;;;4442048;28;660866;-63
2020/12/19 07:29:41;;;;;;;252.65;27.45;;;-0.80;99.90;;;;;;4423181;28;662042;-64
2020/12/19 07:32:28;;;;;;;226.50;26.50;;;-0.80;99.90;;;;;;4441954;28;661016;-63
2020/12/19 07:35:15;;;;;;;353.37;29.80;;;-0.80;99.90;;;;;;4421506;28;661125;-63
2020/12/19 07:38:03;;;;;;;301.77;26.60;;;-0.70;99.90;;;;;;4442354;28;661019;-63
2020/12/19 07:40:53;;;;;;;135.20;21.60;;;-0.70;99.90;;;;;;4420364;28;661227;-64
2020/12/19 07:43:41;;;;;;;128.00;17.77;;;-0.60;99.90;;;;;;4419245;28;660826;-63
2020/12/19 07:46:28;;;;;;;182.53;22.97;;;-0.30;99.90;;;;;;4442303;28;660635;-64
2020/12/19 07:49:33;;;;;;;11.50;4.77;;;-0.40;99.90;;;;;;4420378;28;661050;-63
2020/12/19 07:52:21;;;;;;;122.97;18.60;;;-0.10;99.90;;;;;;4403889;28;660503;-63
2020/12/19 07:55:08;;;;;;;112.80;19.27;;;-0.30;99.90;;;;;;4448044;28;661488;-63
2020/12/19 07:57:56;;;;;;;182.83;22.50;;;-0.60;99.90;;;;;;4428679;28;660485;-63
2020/12/19 08:00:44;;;;;;;220.33;24.00;;;-0.70;99.90;;;;;;4447536;28;661496;-63
2020/12/19 08:03:31;;;;;;;200.50;23.50;;;-0.80;99.90;;;;;;4429192;28;662011;-64
2020/12/19 08:06:18;;;;;;;142.63;22.10;;;-0.80;99.90;;;;;;4447906;28;661174;-64
2020/12/19 08:09:06;;;;;;;214.67;25.40;;;-0.70;99.90;;;;;;4424727;28;662406;-63
2020/12/19 08:11:54;;;;;;;240.33;25.13;;;-0.70;99.90;;;;;;4447833;28;661333;-64
2020/12/19 08:14:41;;;;;;;207.93;25.37;;;-0.60;99.90;;;;;;4424739;28;661927;-63
2020/12/19 08:17:30;;;;;;;194.67;24.97;;;-0.60;99.90;;;;;;4448019;28;661164;-63
2020/12/19 08:20:19;;;;;;;215.27;25.80;;;-0.50;99.90;;;;;;4424637;28;661878;-63
2020/12/19 08:23:06;;;;;;;336.17;29.70;;;-0.40;99.90;;;;;;4424673;28;662768;-63
2020/12/19 08:25:57;;;;;;;303.33;30.70;;;-0.40;99.90;;;;;;4440832;28;660778;-64
2020/12/19 08:28:44;;;;;;;112.77;19.23;;;-0.40;99.90;;;;;;4428718;28;660735;-64
2020/12/19 08:31:34;;;;;;;160.20;23.93;;;-0.30;99.90;;;;;;4447786;28;661985;-63
2020/12/19 08:34:22;;;;;;;413.43;29.67;;;-0.20;99.90;;;;;;4424289;28;661609;-64
2020/12/19 08:37:09;;;;;;;359.53;31.30;;;-0.10;99.90;;;;;;4441172;28;660678;-65
2020/12/19 08:40:10;;;;;;;225.30;27.33;;;-0.10;99.90;;;;;;4451826;28;660675;-64
2020/12/19 08:42:57;;;;;;;369.30;29.63;;;-0.10;99.90;;;;;;4424178;28;661110;-64
2020/12/19 08:45:44;;;;;;;225.87;27.60;;;0.00;99.90;;;;;;4440404;28;660802;-64
2020/12/19 08:48:31;;;;;;;174.67;23.93;;;0.00;99.90;;;;;;4452274;28;660137;-64
2020/12/19 08:51:19;;;;;;;484.17;33.35;;;0.10;99.90;;;;;;4448829;28;660476;-63
2020/12/19 08:54:12;;;;;;;288.13;26.57;;;0.10;99.90;;;;;;4443060;28;660093;-63
2020/12/19 08:57:00;;;;;;;335.63;27.43;;;0.10;99.90;;;;;;4423134;28;660596;-64
2020/12/19 08:59:47;;;;;;;422.00;32.00;;;0.20;99.90;;;;;;4474602;28;660534;-63
2020/12/19 09:02:35;;;;;;;365.33;31.33;;;0.20;99.90;;;;;;4459787;28;659555;-64
2020/12/19 09:05:36;;;;;;;331.43;27.67;;;0.30;99.90;;;;;;4468561;28;660008;-63
2020/12/19 09:08:30;;;;;;;445.63;30.40;;;0.40;99.90;;;;;;4445064;28;659506;-63
2020/12/19 09:11:23;;;;;;;278.07;23.83;;;0.60;99.90;;;;;;4445220;28;659907;-63
2020/12/19 09:14:10;;;;;;;304.43;29.57;;;0.70;99.90;;;;;;4425927;28;659829;-64
2020/12/19 09:16:57;;;;;;;400.80;32.58;;;0.70;99.90;;;;;;4468092;28;659909;-64
2020/12/19 09:19:44;;;;;;;508.83;36.87;;;0.70;99.90;;;;;;4448528;28;660112;-64
2020/12/19 09:22:31;;;;;;;468.07;38.47;;;0.80;99.90;;;;;;4472024;28;661290;-64
2020/12/19 09:25:20;;;;;;;515.87;36.13;;;0.80;99.90;;;;;;4461260;28;660203;-65
2020/12/19 09:28:07;;;;;;;446.20;30.55;;;0.90;99.90;;;;;;4467796;28;660679;-63
2020/12/19 09:30:55;;;;;;;260.17;26.02;;;0.90;99.90;;;;;;4448783;28;659907;-65
2020/12/19 09:33:42;;;;;;;359.73;30.67;;;0.90;99.90;;;;;;4467489;28;660901;-63
2020/12/19 09:36:29;;;;;;;406.17;33.77;;;1.10;99.90;;;;;;4448870;28;660198;-65
2020/12/19 09:39:16;;;;;;;391.20;31.03;;;1.20;99.90;;;;;;4471963;28;659673;-63
2020/12/19 09:42:04;;;;;;;204.68;27.05;;;1.20;99.90;;;;;;4467041;28;659313;-64
2020/12/19 09:44:51;;;;;;;381.60;30.75;;;1.30;99.90;;;;;;4448494;28;660684;-63
2020/12/19 09:47:41;;;;;;;264.23;30.40;;;1.30;99.90;;;;;;4467440;28;659955;-63
2020/12/19 09:50:29;;;;;;;271.38;28.20;;;1.30;99.90;;;;;;4441873;28;659647;-64
2020/12/19 09:53:17;;;;;;;354.93;30.90;;;1.30;99.90;;;;;;4467303;28;661204;-63
2020/12/19 09:56:05;;;;;;;170.10;23.45;;;1.30;99.90;;;;;;4452744;28;659511;-64
2020/12/19 09:58:53;;;;;;;426.10;29.00;;;1.50;99.90;;;;;;4467634;28;660312;-63
2020/12/19 10:01:40;;;;;;;109.27;18.30;;;1.50;99.90;;;;;;4448432;28;659727;-64
2020/12/19 10:04:27;;;;;;;138.20;20.60;;;1.70;99.90;;;;;;4467211;28;660039;-63
2020/12/19 10:07:14;;;;;;;129.70;19.50;;;1.70;99.90;;;;;;4448086;28;659802;-64
2020/12/19 10:10:01;;;;;;;116.13;18.63;;;1.60;99.90;;;;;;4467424;28;660708;-62
2020/12/19 10:12:49;;;;;;;175.47;20.60;;;1.70;99.90;;;;;;4464768;28;660426;-64
2020/12/19 10:15:37;;;;;;;143.10;18.90;;;1.60;99.90;;;;;;4467221;28;659955;-62
2020/12/19 10:18:24;;;;;;;61.53;15.25;;;1.60;99.90;;;;;;4453461;28;659719;-64
2020/12/19 10:21:11;;;;;;;94.47;16.73;;;1.60;99.90;;;;;;4472386;28;659976;-62
2020/12/19 10:23:58;;;;;;;92.33;16.30;;;1.50;99.90;;;;;;4468226;28;658535;-62
2020/12/19 10:26:47;;;;;;;69.15;15.23;;;1.50;99.90;;;;;;4448980;28;658750;-62
2020/12/19 10:29:34;;;;;;;66.55;13.13;;;1.60;99.90;;;;;;4448885;28;658735;-62
2020/12/19 10:32:22;;;;;;;93.47;14.10;;;1.70;99.90;;;;;;4468459;28;660243;-63
2020/12/19 10:35:09;;;;;;;99.82;14.50;;;1.70;99.90;;;;;;4448992;28;658570;-63
2020/12/19 10:37:56;;;;;;;227.30;19.80;;;1.70;99.90;;;;;;4472552;28;660048;-63
2020/12/19 10:40:43;;;;;;;204.37;20.27;;;1.70;99.90;;;;;;4466925;28;659645;-63
2020/12/19 10:43:30;;;;;;;148.80;16.63;;;1.70;99.90;;;;;;4447710;28;660729;-62
2020/12/19 10:46:21;;;;;;;121.83;17.50;;;1.60;99.90;;;;;;4466604;28;660825;-62
2020/12/19 10:49:09;;;;;;;139.03;19.83;;;1.60;99.90;;;;;;4443396;28;660076;-62
2020/12/19 10:51:56;;;;;;;172.02;21.65;;;1.60;99.90;;;;;;4447350;28;660698;-62
2020/12/19 10:54:44;;;;;;;79.77;16.23;;;1.60;99.90;;;;;;4462483;28;660378;-64
2020/12/19 10:57:32;;;;;;;77.13;18.10;;;1.60;99.90;;;;;;4467778;28;659846;-62
2020/12/19 11:00:19;;;;;;;166.73;21.63;;;1.90;99.90;;;;;;4458749;28;658912;-64
2020/12/19 11:03:06;;;;;;;113.90;20.73;;;1.90;99.90;;;;;;4470476;28;660939;-62
2020/12/19 11:05:55;;;;;;;91.70;20.07;;;2.00;99.90;;;;;;4465982;28;659941;-62
2020/12/19 11:08:42;;;;;;;122.93;21.30;;;2.20;99.90;;;;;;4444296;28;659802;-63
2020/12/19 11:11:29;;;;;;;89.60;21.20;;;2.40;99.90;;;;;;4446807;28;659786;-63
2020/12/19 11:14:16;;;;;;;71.77;20.90;;;2.40;99.90;;;;;;4467209;28;660214;-62
2020/12/19 11:17:04;;;;;;;63.17;19.43;;;2.40;99.90;;;;;;4461228;28;658730;-64
2020/12/19 11:19:52;;;;;;;69.40;18.60;;;2.40;99.90;;;;;;4467394;28;659577;-63
2020/12/19 11:22:40;;;;;;;58.83;17.77;;;2.40;99.90;;;;;;4451458;28;658860;-64
2020/12/19 11:25:27;;;;;;;65.60;18.80;;;2.50;99.90;;;;;;4470928;28;659437;-62
2020/12/19 11:28:14;;;;;;;67.72;18.98;;;2.60;99.90;;;;;;4447972;28;659801;-64
2020/12/19 11:31:01;;;;;;;69.65;20.35;;;2.50;99.90;;;;;;4471341;28;658796;-63
2020/12/19 11:33:48;;;;;;;76.28;20.30;;;2.50;99.90;;;;;;4467002;28;658288;-63
2020/12/19 11:36:38;;;;;;;82.20;21.27;;;2.60;99.90;;;;;;4448216;28;658550;-63
2020/12/19 11:39:26;;;;;;;82.80;18.30;;;2.40;99.90;;;;;;4448120;28;658269;-62
2020/12/19 11:42:13;;;;;;;103.07;18.53;;;2.30;99.90;;;;;;4467101;28;658617;-62
2020/12/19 11:45:00;;;;;;;76.30;16.97;;;2.30;99.90;;;;;;4446684;28;659919;-62
2020/12/19 11:47:47;;;;;;;66.00;18.07;;;2.30;99.90;;;;;;4467234;28;659448;-63
2020/12/19 11:50:36;;;;;;;56.33;16.63;;;2.30;99.90;;;;;;4447873;28;658672;-62
2020/12/19 11:53:23;;;;;;;72.67;17.97;;;2.30;99.90;;;;;;4465714;28;659572;-63
2020/12/19 11:56:11;;;;;;;73.63;18.13;;;2.30;99.90;;;;;;4447854;28;658536;-63
2020/12/19 11:58:58;;;;;;;107.50;19.03;;;2.30;99.90;;;;;;4467089;28;659300;-62
2020/12/19 12:01:45;;;;;;;80.87;18.33;;;2.30;99.90;;;;;;4445267;28;659587;-63
2020/12/19 12:04:32;;;;;;;75.40;18.63;;;2.50;99.90;;;;;;4467964;28;659442;-63
2020/12/19 12:07:19;;;;;;;70.60;18.20;;;2.40;99.90;;;;;;4452825;28;658725;-64
2020/12/19 12:10:06;;;;;;;103.60;19.70;;;2.30;99.90;;;;;;4470812;28;658541;-62
2020/12/19 12:12:54;;;;;;;72.37;18.27;;;2.20;99.90;;;;;;4465691;28;659258;-63
2020/12/19 12:15:41;;;;;;;92.97;20.17;;;2.20;99.90;;;;;;4443611;28;660199;-63
2020/12/19 12:18:28;;;;;;;58.40;16.10;;;2.20;99.90;;;;;;4466278;28;658704;-62
2020/12/19 12:21:15;;;;;;;68.97;15.23;;;2.50;99.90;;;;;;4446307;28;658687;-63
2020/12/19 12:24:02;;;;;;;95.70;19.53;;;2.70;99.90;;;;;;4466681;28;659624;-63
2020/12/19 12:26:49;;;;;;;85.00;18.95;;;2.50;99.90;;;;;;4447317;28;658693;-64
2020/12/19 12:29:37;;;;;;;102.40;18.53;;;2.50;99.90;;;;;;4467072;28;660298;-63
2020/12/19 12:32:24;;;;;;;70.87;17.67;;;2.50;99.90;;;;;;4446247;28;659609;-63
2020/12/19 12:35:11;;;;;;;90.60;18.80;;;2.70;99.90;;;;;;4466893;28;660216;-63
2020/12/19 12:37:58;;;;;;;105.47;20.13;;;2.70;99.90;;;;;;4469424;28;659391;-63
2020/12/19 12:40:45;;;;;;;60.30;12.70;;;2.60;99.90;;;;;;4449750;28;659702;-63
2020/12/19 12:43:32;;;;;;;71.80;14.93;;;2.60;99.90;;;;;;4470076;28;658882;-62
2020/12/19 12:46:20;;;;;;;106.47;20.93;;;2.60;99.90;;;;;;4450600;28;658937;-63
2020/12/19 12:49:07;;;;;;;96.80;19.20;;;2.40;99.90;;;;;;4468800;28;659906;-63
2020/12/19 12:51:54;;;;;;;149.50;22.17;;;2.30;99.90;;;;;;4450596;28;658983;-63
2020/12/19 12:54:41;;;;;;;178.27;24.17;;;2.20;99.90;;;;;;4468483;28;661169;-63
2020/12/19 12:57:30;;;;;;;114.67;20.43;;;2.20;99.90;;;;;;4468583;28;659346;-63
2020/12/19 13:00:19;;;;;;;136.50;22.53;;;2.40;99.90;;;;;;4445379;28;660438;-63
2020/12/19 13:03:13;;;;;;;157.87;23.90;;;2.20;99.90;;;;;;4445223;28;660774;-63
2020/12/19 13:06:02;;;;;;;175.53;26.30;;;2.10;99.90;;;;;;4449297;28;659856;-63
2020/12/19 13:08:51;;;;;;;110.87;23.67;;;2.10;99.90;;;;;;4448808;28;659572;-63
2020/12/19 13:11:42;;;;;;;145.67;24.33;;;2.00;99.90;;;;;;4468229;28;659298;-62
2020/12/19 13:14:31;;;;;;;148.33;24.97;;;2.00;99.90;;;;;;4425988;28;660676;-63
2020/12/19 13:17:20;;;;;;;124.23;24.80;;;2.00;99.90;;;;;;4466165;28;659476;-63
2020/12/19 13:20:09;;;;;;;158.40;25.03;;;1.90;99.90;;;;;;4444975;28;660582;-64
2020/12/19 13:22:58;;;;;;;182.60;25.53;;;1.90;99.90;;;;;;4445029;28;660835;-63
2020/12/19 13:25:47;;;;;;;253.17;28.40;;;1.90;99.90;;;;;;4448559;28;659495;-62
2020/12/19 13:28:34;;;;;;;147.07;24.80;;;2.00;99.90;;;;;;4458253;28;659718;-64
2020/12/19 13:31:21;;;;;;;150.57;25.40;;;2.00;99.90;;;;;;4472239;28;659567;-63
2020/12/19 13:34:08;;;;;;;212.07;26.53;;;2.10;99.90;;;;;;4467793;28;660248;-63
2020/12/19 13:36:58;;;;;;;183.30;23.13;;;2.00;99.90;;;;;;4448900;28;659690;-63
2020/12/19 13:39:47;;;;;;;134.33;23.50;;;1.90;99.90;;;;;;4448617;28;661737;-63
2020/12/19 13:42:36;;;;;;;134.03;21.70;;;1.90;99.90;;;;;;4448761;28;659782;-63
2020/12/19 13:45:28;;;;;;;131.40;21.30;;;2.10;99.90;;;;;;4467430;28;659451;-63
2020/12/19 13:48:18;;;;;;;207.33;23.30;;;2.20;99.90;;;;;;4421667;28;660750;-63
2020/12/19 13:51:08;;;;;;;192.27;25.03;;;2.30;99.90;;;;;;4446678;28;659555;-62
2020/12/19 13:53:57;;;;;;;202.27;23.67;;;2.00;99.90;;;;;;4447458;28;659724;-64
2020/12/19 13:56:44;;;;;;;193.83;26.77;;;1.90;99.90;;;;;;4448276;28;659637;-63